Time;durP1;ratioP1;P1;durP2;ratioP2;P2;SDS_P1;SDS_P2;PMS_P1;PMS_P2;Temp;Humidity;BMP_temperature;BMP_pressure;BME280_temperature;BME280_humidity;BME280_pressure;Samples;Min_cycle;Max_cycle;Signal;HPM_P1;HPM_P2
2023/01/21 00:01:13;;;;;;;43.22;22.17;;;-0.50;99.90;;;;;;6224651;22;20011;-91
2023/01/21 00:03:43;;;;;;;43.60;22.42;;;0.30;99.90;;;;;;6247539;22;20016;-90
2023/01/21 00:06:10;;;;;;;39.47;21.15;;;0.60;99.90;;;;;;6221279;22;20023;-89
2023/01/21 00:08:36;;;;;;;40.67;21.25;;;0.00;99.90;;;;;;6222245;22;20023;-89
2023/01/21 00:11:13;;;;;;;41.50;20.98;;;-0.10;99.90;;;;;;6222252;22;20012;-90
2023/01/21 00:13:40;;;;;;;40.80;21.13;;;0.20;99.90;;;;;;6247296;22;20512;-89
2023/01/21 00:16:06;;;;;;;40.45;21.30;;;-1.50;99.90;;;;;;6222093;22;20433;-90
2023/01/21 00:18:33;;;;;;;41.58;21.55;;;-0.80;99.90;;;;;;6221702;22;20066;-89
2023/01/21 00:20:59;;;;;;;40.00;21.20;;;0.00;99.90;;;;;;6222559;22;20022;-90
2023/01/21 00:23:26;;;;;;;40.75;21.90;;;-1.10;99.90;;;;;;6221921;22;20062;-88
2023/01/21 00:26:03;;;;;;;38.97;20.95;;;-1.30;99.90;;;;;;6221554;22;20468;-89
2023/01/21 00:28:31;;;;;;;41.28;20.52;;;-0.10;99.90;;;;;;6246802;22;20024;-89
2023/01/21 00:30:59;;;;;;;39.13;20.50;;;0.30;99.90;;;;;;6221145;22;20015;-88
2023/01/21 00:33:25;;;;;;;40.70;20.75;;;-0.20;99.90;;;;;;6221447;22;20031;-89
2023/01/21 00:36:01;;;;;;;42.55;21.48;;;-0.30;99.90;;;;;;6246544;22;20449;-87
2023/01/21 00:38:28;;;;;;;41.53;21.40;;;-0.40;99.90;;;;;;6221092;22;20023;-88
2023/01/21 00:41:02;;;;;;;39.42;20.40;;;-1.20;99.90;;;;;;6246485;22;20380;-88
2023/01/21 00:43:28;;;;;;;38.15;20.65;;;;;;;;;;6221613;22;20016;-89
2023/01/21 00:45:54;;;;;;;41.58;21.13;;;-1.10;99.90;;;;;;6220847;22;20023;-89
2023/01/21 00:48:20;;;;;;;41.80;20.98;;;-0.40;99.90;;;;;;6221266;22;20028;-86
2023/01/21 00:50:46;;;;;;;46.22;21.90;;;-0.40;99.90;;;;;;6246386;22;20019;-87
2023/01/21 00:53:11;;;;;;;39.22;20.92;;;-0.70;99.90;;;;;;6221146;22;20015;-88
2023/01/21 00:55:37;;;;;;;40.15;21.30;;;-0.30;99.90;;;;;;6221146;22;20054;-89
2023/01/21 00:58:03;;;;;;;40.10;20.92;;;-0.50;99.90;;;;;;6220650;22;20020;-88
2023/01/21 01:00:29;;;;;;;41.03;21.30;;;-0.30;99.90;;;;;;6221025;22;20019;-87
2023/01/21 01:02:57;;;;;;;47.33;21.15;;;-0.10;99.90;;;;;;6221097;22;20063;-87
2023/01/21 01:05:28;;;;;;;42.25;21.42;;;-1.70;99.90;;;;;;6220506;22;20024;-88
2023/01/21 01:07:54;;;;;;;43.17;21.90;;;-0.60;99.90;;;;;;6245901;22;20023;-89
2023/01/21 01:10:22;;;;;;;43.55;22.70;;;-0.80;99.90;;;;;;6220868;22;20020;-87
2023/01/21 01:12:57;;;;;;;44.70;21.45;;;-0.40;99.90;;;;;;6246221;22;20016;-87
2023/01/21 01:15:23;;;;;;;39.83;21.05;;;-0.40;99.90;;;;;;6220861;22;20031;-88
2023/01/21 01:17:51;;;;;;;42.00;20.90;;;-0.60;99.90;;;;;;6221062;22;20027;-88
2023/01/21 01:20:25;;;;;;;44.83;21.58;;;-2.10;99.90;;;;;;6220306;22;20038;-89
2023/01/21 01:23:04;;;;;;;;;;;;;;;;;;;;;
2023/01/21 01:25:40;;;;;;;;;;;;;;;;;;;;;
2023/01/21 01:28:28;;;;;;;;;;;;;;;;;;;;;
2023/01/21 01:34:33;;;;;;;38.33;19.05;;;-0.50;99.90;;;;;;6245778;22;20023;-89
2023/01/21 01:40:10;;;;;;;;;;;;;;;;;;;;;
2023/01/21 01:43:26;;;;;;;44.30;20.23;;;-1.80;99.90;;;;;;6183690;23;20386;-89
2023/01/21 01:46:32;;;;;;;42.55;19.92;;;-1.20;99.90;;;;;;6186894;23;20036;-89
2023/01/21 01:52:50;;;;;;;41.50;19.98;;;-2.60;99.90;;;;;;6184309;23;20032;-89
2023/01/21 01:56:22;;;;;;;37.45;20.45;;;-1.90;99.90;;;;;;6208674;23;20704;-90
2023/01/21 01:59:27;;;;;;;44.70;21.88;;;-2.70;99.90;;;;;;6124158;23;20097;-89
2023/01/21 02:02:31;;;;;;;43.10;20.95;;;-1.90;99.90;;;;;;6061954;23;20169;-88
2023/01/21 02:05:18;;;;;;;39.50;19.27;;;-1.90;99.90;;;;;;6037724;23;20534;-88
2023/01/21 02:08:42;;;;;;;39.97;20.48;;;-2.00;99.90;;;;;;6037722;23;20331;-88
2023/01/21 02:11:39;;;;;;;41.65;19.50;;;-2.10;99.90;;;;;;6037585;23;20106;-88
2023/01/21 02:14:41;;;;;;;38.53;17.80;;;-2.10;99.90;;;;;;6060497;23;20027;-87
2023/01/21 02:18:15;;;;;;;;;;;;;;;;;;;;;
2023/01/21 02:21:10;;;;;;;36.88;18.17;;;-2.10;99.90;;;;;;6037056;23;20724;-87
2023/01/21 02:24:05;;;;;;;42.38;19.15;;;-2.20;99.90;;;;;;6036797;23;20031;-88
2023/01/21 02:27:15;;;;;;;38.72;20.67;;;-3.20;99.90;;;;;;6059226;23;20027;-88
2023/01/21 02:30:43;;;;;;;41.28;19.60;;;-1.50;99.90;;;;;;6036831;23;20022;-87
2023/01/21 02:34:08;;;;;;;40.95;19.50;;;-2.30;99.90;;;;;;6017376;23;20027;-88
2023/01/21 02:37:32;;;;;;;40.72;19.67;;;-2.20;99.90;;;;;;5980175;23;20027;-88
2023/01/21 02:40:38;;;;;;;38.72;17.80;;;-2.40;99.90;;;;;;5937739;24;20017;-87
2023/01/21 02:44:08;;;;;;;37.75;19.13;;;-1.50;99.90;;;;;;5919551;24;20099;-88
2023/01/21 02:47:11;;;;;;;39.25;19.33;;;-1.00;99.90;;;;;;5918640;23;20699;-88
2023/01/21 02:50:41;;;;;;;43.58;20.58;;;-2.80;99.90;;;;;;5916217;24;20019;-88
2023/01/21 03:30:31;;;;;;;41.88;19.77;;;-1.50;99.90;;;;;;5635370;22;15102978;-91
2023/01/21 03:33:24;;;;;;;40.58;19.77;;;-1.70;99.90;;;;;;6227837;22;20015;-90
2023/01/21 03:36:30;;;;;;;41.88;19.98;;;-2.10;99.90;;;;;;6278587;22;20067;-87
2023/01/21 03:39:46;;;;;;;38.17;20.15;;;-2.20;99.90;;;;;;6213119;22;20062;-91
2023/01/21 03:42:51;;;;;;;;;;;;;;;;;;;;;
2023/01/21 03:45:42;;;;;;;41.58;20.27;;;-1.40;99.90;;;;;;6252258;22;20118;-90
2023/01/21 03:48:50;;;;;;;45.70;21.77;;;-1.20;99.90;;;;;;6253393;22;20019;-90
2023/01/21 03:51:50;;;;;;;46.92;21.65;;;-1.90;99.90;;;;;;6228773;22;20018;-91
2023/01/21 03:54:44;;;;;;;45.35;21.63;;;-2.20;99.90;;;;;;6227484;22;20020;-92
2023/01/21 03:58:06;;;;;;;43.47;21.27;;;-0.50;99.90;;;;;;6103344;23;20021;-92
2023/01/21 04:00:58;;;;;;;50.83;23.17;;;-2.20;99.90;;;;;;6079809;23;20105;-92
2023/01/21 04:04:01;;;;;;;49.47;21.60;;;-2.20;99.90;;;;;;6081252;23;20022;-91
2023/01/21 04:06:42;;;;;;;54.78;22.88;;;-2.90;99.90;;;;;;6083412;23;20022;-89
2023/01/21 04:09:30;;;;;;;48.88;22.92;;;-2.20;99.90;;;;;;6104839;23;20025;-92
2023/01/21 04:12:26;;;;;;;42.72;21.23;;;-2.50;99.90;;;;;;6099716;23;20045;-92
2023/01/21 04:15:08;;;;;;;46.28;21.35;;;-2.20;99.90;;;;;;6052851;23;20061;-88
2023/01/21 04:17:40;;;;;;;49.20;23.45;;;-1.10;99.90;;;;;;6075730;23;20021;-93
2023/01/21 04:20:36;;;;;;;43.45;20.88;;;-0.90;99.90;;;;;;6075189;23;20053;-93
2023/01/21 04:23:07;;;;;;;47.05;23.35;;;-2.10;99.90;;;;;;6099832;23;20413;-91
2023/01/21 04:25:41;;;;;;;51.03;23.25;;;-1.90;99.90;;;;;;6076048;23;20033;-92
2023/01/21 04:28:46;;;;;;;44.47;22.25;;;-2.00;99.90;;;;;;6100037;23;20857;-93
2023/01/21 04:31:33;;;;;;;50.13;21.95;;;-1.90;99.90;;;;;;6093817;23;20037;-92
2023/01/21 04:34:07;;;;;;;48.72;22.45;;;-2.20;99.90;;;;;;6151419;22;20051;-93
2023/01/21 04:36:53;;;;;;;46.05;21.05;;;-1.30;99.90;;;;;;6130876;23;20084;-94
2023/01/21 04:39:24;;;;;;;48.13;22.63;;;-1.00;99.90;;;;;;6151899;23;20022;-90
2023/01/21 04:41:56;;;;;;;57.70;24.58;;;-1.80;99.90;;;;;;6156839;23;20101;-93
2023/01/21 04:44:46;;;;;;;51.78;22.95;;;-0.60;99.90;;;;;;6163259;23;20027;-91
2023/01/21 04:47:23;;;;;;;44.58;22.13;;;-1.80;99.90;;;;;;6213896;23;20024;-92
2023/01/21 04:49:51;;;;;;;58.15;25.30;;;-0.90;99.90;;;;;;6189372;23;20040;-94
2023/01/21 04:52:17;;;;;;;51.38;24.45;;;-0.60;99.90;;;;;;6189335;23;20337;-93
2023/01/21 04:54:45;;;;;;;52.70;24.40;;;-1.10;99.90;;;;;;6213707;23;20469;-94
2023/01/21 04:57:11;;;;;;;48.47;24.40;;;-0.60;99.90;;;;;;6164314;23;20123;-94
2023/01/21 04:59:37;;;;;;;58.33;25.77;;;-0.70;99.90;;;;;;6189271;23;20052;-94
2023/01/21 05:02:05;;;;;;;55.05;27.08;;;-1.10;99.90;;;;;;6187971;23;20035;-93
2023/01/21 05:04:33;;;;;;;60.55;26.23;;;-0.70;99.90;;;;;;6189419;23;20016;-94
2023/01/21 05:07:01;;;;;;;54.60;24.75;;;-0.40;99.90;;;;;;6189053;23;20044;-94
2023/01/21 05:09:27;;;;;;;49.28;24.42;;;-0.50;99.90;;;;;;6188895;23;20051;-94
2023/01/21 05:12:00;;;;;;;59.42;26.75;;;-0.60;99.90;;;;;;6164314;23;20377;-95
2023/01/21 05:14:56;;;;;;;58.95;26.88;;;-0.90;99.90;;;;;;6268765;22;20030;-94
2023/01/21 05:17:27;;;;;;;52.90;24.83;;;-1.40;99.90;;;;;;6281295;22;20023;-93
2023/01/21 05:19:55;;;;;;;54.28;23.90;;;-1.90;99.90;;;;;;6281176;22;20108;-94
2023/01/21 05:22:23;;;;;;;58.40;24.95;;;-1.60;99.90;;;;;;6284561;22;20022;-89
2023/01/21 05:24:52;;;;;;;52.38;25.98;;;-0.90;99.90;;;;;;6286690;22;20038;-91
2023/01/21 05:27:43;;;;;;;58.38;26.92;;;-1.30;99.90;;;;;;6281649;22;20011;-94
2023/01/21 05:30:34;;;;;;;52.60;25.30;;;-1.10;99.90;;;;;;6277591;22;20073;-91
2023/01/21 05:33:08;;;;;;;56.15;26.15;;;-1.20;99.90;;;;;;6277779;22;20470;-92
2023/01/21 05:35:34;;;;;;;58.80;25.25;;;-0.20;99.90;;;;;;6279756;22;20019;-92
2023/01/21 05:38:03;;;;;;;51.30;25.27;;;-1.20;99.90;;;;;;6305047;22;20105;-94
2023/01/21 05:40:31;;;;;;;55.47;26.20;;;-2.20;99.90;;;;;;6304149;22;20080;-93
2023/01/21 05:43:00;;;;;;;58.20;25.45;;;-0.60;99.90;;;;;;6304982;22;20015;-93
2023/01/21 05:45:47;;;;;;;56.95;25.48;;;-1.30;99.90;;;;;;6279557;22;20022;-93
2023/01/21 05:48:24;;;;;;;54.35;25.33;;;-0.70;99.90;;;;;;6279418;22;20019;-93
2023/01/21 05:50:50;;;;;;;56.15;24.65;;;-0.80;99.90;;;;;;6307392;22;20026;-91
2023/01/21 05:53:32;;;;;;;53.72;26.55;;;-1.30;99.90;;;;;;6280718;22;20022;-93
2023/01/21 05:56:04;;;;;;;53.15;26.13;;;;;;;;;;6280149;22;20482;-91
2023/01/21 05:58:39;;;;;;;53.38;25.38;;;-1.20;99.90;;;;;;6279276;22;20344;-92
2023/01/21 06:01:08;;;;;;;;;;;-0.30;99.90;;;;;;6279917;22;20402;-94
2023/01/21 06:03:39;;;;;;;52.25;24.17;;;-1.60;99.90;;;;;;6302403;22;19911;-93
2023/01/21 06:06:13;;;;;;;52.83;24.15;;;0.60;99.90;;;;;;6280096;22;20098;-94
2023/01/21 06:08:57;;;;;;;46.50;23.58;;;-0.20;99.90;;;;;;6279822;22;20320;-94
2023/01/21 06:11:23;;;;;;;53.15;23.90;;;-0.90;99.90;;;;;;6305893;22;20023;-93
2023/01/21 06:14:11;;;;;;;54.25;25.17;;;-1.30;99.90;;;;;;6279815;22;20030;-94
2023/01/21 06:16:45;;;;;;;48.88;22.85;;;0.10;99.90;;;;;;6278962;22;20062;-93
2023/01/21 06:19:16;;;;;;;49.60;23.90;;;-0.40;99.90;;;;;;6278193;22;20016;-94
2023/01/21 06:21:45;;;;;;;49.03;23.33;;;-1.40;99.90;;;;;;6279917;22;20019;-94
2023/01/21 06:24:14;;;;;;;50.30;24.27;;;-0.80;99.90;;;;;;6279915;22;20074;-93
2023/01/21 06:26:39;;;;;;;52.38;26.10;;;-0.20;99.90;;;;;;6280218;22;20011;-89
2023/01/21 06:29:08;;;;;;;52.10;25.02;;;-0.60;99.90;;;;;;6279361;22;20019;-91
2023/01/21 06:31:55;;;;;;;53.00;24.23;;;-2.20;99.90;;;;;;6278875;22;20482;-95
2023/01/21 06:34:23;;;;;;;48.95;24.35;;;-1.40;99.90;;;;;;6280650;22;20015;-92
2023/01/21 06:36:49;;;;;;;49.70;25.48;;;-0.70;99.90;;;;;;6279608;22;20019;-93
2023/01/21 06:39:20;;;;;;;52.33;24.15;;;-1.10;99.90;;;;;;6280141;22;20023;-94
2023/01/21 06:41:51;;;;;;;57.42;26.95;;;-1.40;99.90;;;;;;6307469;22;20055;-93
2023/01/21 06:44:19;;;;;;;56.72;25.52;;;-0.60;99.90;;;;;;6279549;22;20027;-93
2023/01/21 06:50:17;;;;;;;50.78;24.73;;;-2.00;99.90;;;;;;6305151;22;20032;-94
2023/01/21 06:52:44;;;;;;;57.60;26.45;;;-1.30;99.90;;;;;;6305633;22;20022;-94
2023/01/21 06:55:16;;;;;;;50.47;24.60;;;-0.70;99.90;;;;;;6280093;22;20383;-95
2023/01/21 06:57:43;;;;;;;49.97;24.40;;;-0.50;99.90;;;;;;6305578;22;20094;-90
2023/01/21 07:00:10;;;;;;;53.03;25.25;;;-0.80;99.90;;;;;;6305070;22;20019;-94
2023/01/21 07:02:36;;;;;;;53.83;25.80;;;-1.40;99.90;;;;;;6306242;22;20011;-93
2023/01/21 07:05:04;;;;;;;56.55;26.08;;;-0.70;99.90;;;;;;6279197;22;20054;-94
2023/01/21 07:07:35;;;;;;;52.22;25.65;;;-1.50;99.90;;;;;;6281100;22;20124;-90
2023/01/21 07:10:04;;;;;;;48.58;25.17;;;-0.20;99.90;;;;;;6279041;22;20015;-92
2023/01/21 07:12:32;;;;;;;54.85;25.95;;;-2.00;99.90;;;;;;6305627;22;20027;-94
2023/01/21 07:15:01;;;;;;;52.55;25.08;;;-0.20;99.90;;;;;;6280330;22;20011;-94
2023/01/21 07:17:27;;;;;;;55.65;24.85;;;-0.90;99.90;;;;;;6279435;22;20015;-94
2023/01/21 07:19:56;;;;;;;50.47;25.10;;;-0.20;99.90;;;;;;6279868;22;20061;-91
2023/01/21 07:22:29;;;;;;;51.92;23.90;;;-1.30;99.90;;;;;;6280553;22;20444;-94
2023/01/21 07:24:57;;;;;;;50.72;23.52;;;-0.50;99.90;;;;;;6279531;22;20054;-95
2023/01/21 07:27:26;;;;;;;52.40;24.60;;;-1.70;99.90;;;;;;6279362;22;20022;-94
2023/01/21 07:30:21;;;;;;;50.47;24.50;;;-1.00;99.90;;;;;;6280130;22;20011;-93
2023/01/21 07:35:53;;;;;;;51.53;24.40;;;-2.50;99.90;;;;;;6305305;22;20102;-94
2023/01/21 07:38:24;;;;;;;51.83;25.35;;;-0.80;99.90;;;;;;6280190;22;20030;-92
2023/01/21 07:40:56;;;;;;;46.85;25.33;;;-0.80;99.90;;;;;;6279353;22;20330;-94
2023/01/21 07:46:21;;;;;;;46.90;23.77;;;-0.70;99.90;;;;;;6212136;23;20059;-92
2023/01/21 07:49:16;;;;;;;51.60;24.80;;;-2.40;99.90;;;;;;6161403;23;20832;-94
2023/01/21 07:51:48;;;;;;;54.22;25.80;;;-1.90;99.90;;;;;;6186067;23;20024;-93
2023/01/21 07:54:32;;;;;;;53.40;25.95;;;-1.90;99.90;;;;;;6163139;23;20667;-94
2023/01/21 07:56:58;;;;;;;50.47;24.40;;;-1.80;99.90;;;;;;6160999;23;20048;-92
2023/01/21 07:59:30;;;;;;;53.95;25.77;;;-0.50;99.90;;;;;;6186139;23;20468;-93
2023/01/21 08:02:04;;;;;;;56.03;26.05;;;-1.90;99.90;;;;;;6161763;23;20025;-90
2023/01/21 08:04:37;;;;;;;58.75;26.30;;;-0.70;99.90;;;;;;6162271;23;20024;-93
2023/01/21 08:07:08;;;;;;;54.65;26.35;;;-2.00;99.90;;;;;;6163558;23;20051;-94
2023/01/21 08:09:47;;;;;;;53.88;25.70;;;-1.20;99.90;;;;;;6161791;23;20016;-92
2023/01/21 08:12:32;;;;;;;52.05;22.83;;;-1.40;99.90;;;;;;6186508;23;20055;-90
2023/01/21 08:15:19;;;;;;;49.38;23.05;;;-0.90;99.90;;;;;;6164411;22;20020;-87
2023/01/21 08:18:03;;;;;;;49.67;23.15;;;-2.00;99.90;;;;;;6277644;22;20068;-87
2023/01/21 08:20:58;;;;;;;49.95;23.33;;;-1.90;99.90;;;;;;6303334;22;20027;-87
2023/01/21 08:23:27;;;;;;;56.80;24.73;;;-2.10;99.90;;;;;;6277889;22;20121;-90
2023/01/21 08:25:53;;;;;;;53.90;26.33;;;;;;;;;;6278050;22;20055;-89
2023/01/21 08:28:25;;;;;;;53.97;25.73;;;-1.40;99.90;;;;;;6303781;22;20011;-90
2023/01/21 08:30:56;;;;;;;51.63;25.08;;;-2.00;99.90;;;;;;6277756;22;20579;-89
2023/01/21 08:33:28;;;;;;;50.78;24.25;;;-1.00;99.90;;;;;;6302534;22;20023;-89
2023/01/21 08:36:15;;;;;;;55.70;25.15;;;-0.90;99.90;;;;;;6279171;22;20344;-90
2023/01/21 08:39:05;;;;;;;57.15;26.42;;;-2.80;99.90;;;;;;6304212;22;20023;-91
2023/01/21 08:41:34;;;;;;;54.63;26.45;;;-3.10;99.90;;;;;;6304187;22;20098;-91
2023/01/21 08:44:03;;;;;;;52.72;25.80;;;-0.70;99.90;;;;;;6277740;22;20019;-91
2023/01/21 08:46:43;;;;;;;55.25;26.60;;;-1.80;99.90;;;;;;6278117;22;20015;-90
2023/01/21 08:49:12;;;;;;;60.25;28.15;;;-0.80;99.90;;;;;;6276332;22;20018;-89
2023/01/21 08:51:47;;;;;;;63.65;29.30;;;-1.90;99.90;;;;;;6277274;22;20019;-90
2023/01/21 08:54:21;;;;;;;57.88;28.08;;;-1.70;99.90;;;;;;6304599;22;20030;-88
2023/01/21 08:56:55;;;;;;;56.60;28.27;;;-0.90;99.90;;;;;;6282001;22;20022;-87
2023/01/21 08:59:43;;;;;;;58.90;27.95;;;-1.70;99.90;;;;;;6304767;22;20023;-90
2023/01/21 09:02:13;;;;;;;58.35;27.48;;;-1.80;99.90;;;;;;6277029;22;20112;-87
2023/01/21 09:04:42;;;;;;;57.47;28.42;;;-1.40;99.90;;;;;;6277251;22;20030;-89
2023/01/21 09:07:20;;;;;;;63.78;27.63;;;-1.90;99.90;;;;;;6276839;22;20019;-89
2023/01/21 09:09:56;;;;;;;58.45;27.85;;;-1.70;99.90;;;;;;6303796;22;20026;-87
2023/01/21 09:12:34;;;;;;;58.03;28.08;;;-0.80;99.90;;;;;;6278213;22;20027;-86
2023/01/21 09:15:09;;;;;;;72.63;31.08;;;-2.30;99.90;;;;;;6276845;22;20011;-87
2023/01/21 09:17:37;;;;;;;64.93;28.63;;;-1.60;99.90;;;;;;6277862;22;20045;-87
2023/01/21 09:20:10;;;;;;;57.97;28.50;;;-2.60;99.90;;;;;;6277503;22;20106;-88
2023/01/21 09:22:39;;;;;;;61.60;29.13;;;-1.60;99.90;;;;;;6277473;22;20047;-87
2023/01/21 09:25:09;;;;;;;58.40;26.67;;;-0.60;99.90;;;;;;6277162;22;20098;-88
2023/01/21 09:27:39;;;;;;;62.65;28.67;;;-1.40;99.90;;;;;;6276829;22;20023;-88
2023/01/21 09:30:05;;;;;;;62.50;29.00;;;-0.50;99.90;;;;;;6303919;22;20027;-89
2023/01/21 09:32:36;;;;;;;62.47;26.73;;;-1.20;99.90;;;;;;6276779;22;20032;-88
2023/01/21 09:35:10;;;;;;;66.40;29.75;;;-1.30;99.90;;;;;;6276287;22;20078;-90
2023/01/21 09:38:11;;;;;;;61.60;28.08;;;-0.80;99.90;;;;;;6276937;22;20085;-89
2023/01/21 09:40:57;;;;;;;67.32;30.15;;;-0.70;99.90;;;;;;6275892;22;20019;-88
2023/01/21 09:44:14;;;;;;;57.58;27.77;;;-0.10;99.90;;;;;;6302654;22;20019;-89
2023/01/21 09:47:02;;;;;;;;;;;-0.50;99.90;;;;;;6214886;23;20352;-88
2023/01/21 09:50:43;;;;;;;64.13;30.42;;;-1.30;99.90;;;;;;6239308;23;19922;-89
2023/01/21 09:53:57;;;;;;;63.85;30.15;;;-0.40;99.90;;;;;;6121519;23;20064;-90
2023/01/21 09:57:49;;;;;;;;;;;;;;;;;;;;;
2023/01/21 10:05:26;;;;;;;73.82;33.15;;;1.40;99.90;;;;;;5955234;23;20087;-92
2023/01/21 10:08:03;;;;;;;66.72;33.15;;;0.30;99.90;;;;;;5874845;24;20022;-95
2023/01/21 10:10:41;;;;;;;66.70;31.52;;;2.40;99.90;;;;;;5875227;24;20092;-91
2023/01/21 10:13:24;;;;;;;72.03;34.00;;;0.70;99.90;;;;;;5875050;24;20037;-93
2023/01/21 10:16:15;;;;;;;77.47;33.58;;;2.40;99.90;;;;;;5888662;24;20060;-92
2023/01/21 10:18:56;;;;;;;76.28;33.45;;;1.50;99.90;;;;;;5901442;24;20111;-94
2023/01/21 10:21:59;;;;;;;66.18;31.88;;;1.30;99.90;;;;;;5901374;24;20013;-93
2023/01/21 10:24:55;;;;;;;67.53;32.60;;;2.40;99.90;;;;;;5902046;24;20005;-91
2023/01/21 10:27:47;;;;;;;63.30;31.23;;;3.30;99.90;;;;;;5899927;24;20062;-90
2023/01/21 10:33:36;;;;;;;54.95;27.30;;;3.00;99.90;;;;;;6328880;22;20115;-90
2023/01/21 10:40:12;;;;;;;60.38;30.85;;;3.60;99.90;;;;;;6302348;22;20022;-89
2023/01/21 10:43:23;;;;;;;55.50;28.17;;;3.90;99.90;;;;;;6279714;22;20022;-88
2023/01/21 10:46:17;;;;;;;45.63;26.20;;;3.20;99.90;;;;;;6277446;22;20485;-86
2023/01/21 10:49:09;;;;;;;56.25;33.35;;;4.40;99.90;;;;;;6240398;23;20809;-87
2023/01/21 10:54:41;;;;;;;36.95;20.30;;;4.30;99.90;;;;;;5112409;27;20440;-88
2023/01/21 10:57:37;;;;;;;43.40;24.02;;;4.30;99.90;;;;;;5085876;28;20070;-91
2023/01/21 11:08:34;;;;;;;35.28;20.85;;;4.70;99.90;;;;;;4890420;29;20043;-90
2023/01/21 11:18:56;;;;;;;34.13;19.92;;;5.00;99.90;;;;;;4835520;29;20061;-89
2023/01/21 11:22:22;;;;;;;39.25;20.20;;;5.70;99.90;;;;;;4833076;29;20451;-89
2023/01/21 11:29:10;;;;;;;37.28;20.70;;;5.30;99.90;;;;;;4965287;23;20614;-87
2023/01/21 11:32:00;;;;;;;33.60;19.30;;;5.10;99.90;;;;;;5029532;28;20132;-89
2023/01/21 11:34:26;;;;;;;31.30;19.00;;;6.40;99.90;;;;;;5062088;28;20064;-90
2023/01/21 11:37:46;;;;;;;30.05;19.02;;;6.00;99.90;;;;;;5045127;28;20438;-89
2023/01/21 11:40:30;;;;;;;32.92;19.13;;;6.10;99.90;;;;;;5044708;28;20403;-89
2023/01/21 11:43:07;;;;;;;34.75;19.25;;;6.10;99.90;;;;;;5028544;28;20049;-88
2023/01/21 11:45:41;;;;;;;32.38;20.25;;;6.10;99.90;;;;;;5028132;28;20107;-87
2023/01/21 11:48:21;;;;;;;29.02;17.73;;;7.20;99.90;;;;;;5061553;28;20495;-88
2023/01/21 11:50:49;;;;;;;29.88;18.77;;;7.20;99.90;;;;;;5061534;28;20045;-88
2023/01/21 11:53:17;;;;;;;26.42;17.83;;;7.20;99.90;;;;;;5044333;28;20045;-89
2023/01/21 11:55:55;;;;;;;31.33;18.85;;;7.50;99.90;;;;;;5027674;28;20049;-88
2023/01/21 11:58:30;;;;;;;29.15;18.40;;;6.30;99.90;;;;;;5027794;28;20129;-88
2023/01/21 12:01:03;;;;;;;26.17;17.27;;;6.70;99.90;;;;;;5028652;28;20150;-89
2023/01/21 12:03:51;;;;;;;30.63;19.25;;;6.80;99.90;;;;;;5039561;28;20041;-89
2023/01/21 12:06:24;;;;;;;27.25;17.20;;;7.70;99.90;;;;;;5030936;28;20037;-87
2023/01/21 12:09:00;;;;;;;29.05;18.88;;;7.00;99.90;;;;;;5014921;28;20059;-87
2023/01/21 12:11:28;;;;;;;30.05;17.17;;;7.20;99.90;;;;;;5031672;28;20065;-87
2023/01/21 12:14:03;;;;;;;27.08;17.15;;;7.70;99.90;;;;;;5015730;28;20446;-88
2023/01/21 12:16:29;;;;;;;;;;;7.30;99.90;;;;;;5015534;28;20046;-88
2023/01/21 12:19:42;;;;;;;25.30;17.35;;;7.40;99.90;;;;;;5031664;28;19928;-87
2023/01/21 12:22:34;;;;;;;28.02;16.80;;;7.30;99.90;;;;;;4974171;28;20050;-88
2023/01/21 12:25:18;;;;;;;26.92;17.33;;;7.40;99.90;;;;;;4974358;28;20065;-87
2023/01/21 12:27:59;;;;;;;27.50;17.35;;;7.50;99.90;;;;;;4990288;28;20062;-87
2023/01/21 12:30:50;;;;;;;23.17;15.50;;;8.40;99.90;;;;;;4990569;28;20061;-88
2023/01/21 12:33:30;;;;;;;22.55;14.30;;;7.40;99.90;;;;;;4974513;28;20062;-88
2023/01/21 12:36:18;;;;;;;22.77;15.23;;;7.60;99.90;;;;;;4990804;28;20054;-88
2023/01/21 12:39:09;;;;;;;22.40;14.23;;;7.80;99.90;;;;;;4974472;28;20104;-88
2023/01/21 12:41:37;;;;;;;22.42;14.70;;;7.90;99.90;;;;;;4989942;28;20050;-85
2023/01/21 12:44:05;;;;;;;18.75;12.35;;;7.90;99.90;;;;;;4990442;28;20148;-86
2023/01/21 12:46:45;;;;;;;19.05;12.60;;;8.00;99.90;;;;;;4990481;28;20050;-87
2023/01/21 12:49:35;;;;;;;11.15;7.82;;;8.00;99.90;;;;;;4973883;28;20065;-91
2023/01/21 12:52:12;;;;;;;12.15;7.45;;;7.80;99.90;;;;;;4973892;28;20087;-88
2023/01/21 12:55:17;;;;;;;13.57;8.00;;;8.50;99.90;;;;;;4958340;28;20050;-88
2023/01/21 12:58:09;;;;;;;12.43;8.02;;;7.60;99.90;;;;;;4993084;28;20938;-87
2023/01/21 13:00:45;;;;;;;10.30;7.85;;;8.60;99.90;;;;;;4977781;28;20500;-86
2023/01/21 13:03:32;;;;;;;11.48;7.68;;;7.80;99.90;;;;;;4993065;28;20511;-87
2023/01/21 13:06:08;;;;;;;10.65;6.72;;;7.80;99.90;;;;;;4993502;28;20390;-88
2023/01/21 13:08:44;;;;;;;9.77;6.20;;;7.50;99.90;;;;;;4976378;28;20062;-87
2023/01/21 13:11:24;;;;;;;8.23;5.13;;;7.90;99.90;;;;;;4992921;28;20046;-88
2023/01/21 13:14:08;;;;;;;8.98;4.25;;;7.70;99.90;;;;;;5009402;28;20501;-89
2023/01/21 13:16:50;;;;;;;5.22;3.58;;;7.70;99.90;;;;;;5011698;28;20859;-88
2023/01/21 13:19:16;;;;;;;14.80;9.68;;;8.00;99.90;;;;;;4973473;28;20086;-87
2023/01/21 13:22:21;;;;;;;11.07;5.55;;;7.70;99.90;;;;;;4989843;28;20078;-87
2023/01/21 13:25:07;;;;;;;36.45;18.67;;;6.80;99.90;;;;;;5010248;28;20049;-87
2023/01/21 13:27:51;;;;;;;;;;;6.60;99.90;;;;;;5029447;28;20064;-87
2023/01/21 13:30:38;;;;;;;6.28;4.18;;;6.50;99.90;;;;;;4992288;28;20386;-87
2023/01/21 13:33:33;;;;;;;6.30;3.70;;;6.90;99.90;;;;;;5027272;28;20053;-87
2023/01/21 13:36:22;;;;;;;6.55;3.40;;;6.50;99.90;;;;;;5016762;28;20060;-88
2023/01/21 13:39:26;;;;;;;6.53;4.05;;;6.80;99.90;;;;;;5033016;28;20822;-89
2023/01/21 13:41:59;;;;;;;7.53;4.30;;;6.30;99.90;;;;;;5008762;28;20677;-89
2023/01/21 13:44:43;;;;;;;5.45;3.45;;;6.40;99.90;;;;;;5008666;28;20054;-91
2023/01/21 13:47:45;;;;;;;6.05;3.45;;;6.50;99.90;;;;;;5025022;28;20622;-89
2023/01/21 13:50:35;;;;;;;5.43;3.30;;;6.60;99.90;;;;;;4975117;28;20062;-87
2023/01/21 13:53:29;;;;;;;5.60;3.40;;;6.80;99.90;;;;;;5008523;28;20141;-87
2023/01/21 13:56:28;;;;;;;5.63;3.60;;;7.80;99.90;;;;;;5008220;28;20127;-88
2023/01/21 13:59:15;;;;;;;5.82;3.60;;;7.10;99.90;;;;;;4991732;28;20050;-87
2023/01/21 14:02:04;;;;;;;5.38;3.63;;;7.20;99.90;;;;;;5008518;28;20572;-89
2023/01/21 14:04:59;;;;;;;7.15;4.13;;;7.40;99.90;;;;;;5024893;28;20049;-87
2023/01/21 14:07:58;;;;;;;6.00;4.15;;;7.40;99.90;;;;;;4991998;28;20524;-88
2023/01/21 14:10:58;;;;;;;6.10;3.85;;;7.50;99.90;;;;;;4952549;28;20521;-90
2023/01/21 14:13:38;;;;;;;6.47;4.40;;;7.70;99.90;;;;;;4937455;28;20062;-88
2023/01/21 14:16:06;;;;;;;7.75;3.42;;;8.50;99.90;;;;;;4969966;28;20055;-88
2023/01/21 14:18:51;;;;;;;4.43;3.13;;;7.60;99.90;;;;;;4976005;28;20061;-87
2023/01/21 14:21:32;;;;;;;5.40;3.35;;;7.50;99.90;;;;;;4988525;28;20069;-87
2023/01/21 14:24:18;;;;;;;5.45;3.05;;;8.30;99.90;;;;;;4988648;28;20058;-87
2023/01/21 14:27:08;;;;;;;6.05;3.28;;;7.20;99.90;;;;;;4966695;28;20441;-87
2023/01/21 14:29:36;;;;;;;5.03;2.97;;;7.80;99.90;;;;;;4988434;28;20140;-87
2023/01/21 14:32:10;;;;;;;4.32;2.75;;;7.50;99.90;;;;;;4972423;28;20066;-86
2023/01/21 14:35:06;;;;;;;4.43;2.92;;;6.70;99.90;;;;;;4988410;28;20059;-88
2023/01/21 14:37:45;;;;;;;4.93;2.97;;;6.70;99.90;;;;;;4972427;28;20058;-87
2023/01/21 14:40:27;;;;;;;4.88;3.30;;;6.70;99.90;;;;;;4988015;28;20141;-88
2023/01/21 14:42:53;;;;;;;5.80;3.50;;;5.60;99.90;;;;;;4988350;28;20043;-86
2023/01/21 14:45:24;;;;;;;3.97;2.92;;;5.90;99.90;;;;;;4988196;28;20046;-87
2023/01/21 14:47:56;;;;;;;4.68;3.00;;;5.90;99.90;;;;;;5001021;28;20058;-89
2023/01/21 14:50:49;;;;;;;4.75;3.38;;;5.30;99.90;;;;;;5015696;28;20049;-87
2023/01/21 14:53:25;;;;;;;5.40;3.67;;;5.10;99.90;;;;;;5049726;28;20049;-87
2023/01/21 14:56:13;;;;;;;7.40;4.15;;;5.40;99.90;;;;;;5031624;28;20064;-88
2023/01/21 14:58:59;;;;;;;6.85;3.80;;;4.90;99.90;;;;;;5015417;28;20122;-88
2023/01/21 15:01:28;;;;;;;8.32;4.68;;;5.80;99.90;;;;;;5005064;28;20063;-88
2023/01/21 15:03:55;;;;;;;6.93;4.55;;;4.70;99.90;;;;;;5031707;28;20139;-89
2023/01/21 15:06:23;;;;;;;6.82;4.90;;;5.40;99.90;;;;;;5031553;28;20077;-87
2023/01/21 15:08:56;;;;;;;6.80;4.88;;;4.60;99.90;;;;;;5015657;28;20441;-88
2023/01/21 15:11:38;;;;;;;7.88;5.00;;;5.30;99.90;;;;;;5064423;28;20055;-88
2023/01/21 15:14:19;;;;;;;6.70;4.60;;;4.60;99.90;;;;;;5032142;28;20120;-87
2023/01/21 15:16:46;;;;;;;7.00;5.00;;;5.50;99.90;;;;;;5049679;28;20403;-90
2023/01/21 15:19:13;;;;;;;6.95;4.68;;;5.40;99.90;;;;;;5049552;28;20061;-88
2023/01/21 15:21:44;;;;;;;7.03;4.65;;;4.50;99.90;;;;;;5031928;28;20455;-87
2023/01/21 15:24:28;;;;;;;7.25;4.80;;;5.40;99.90;;;;;;5015453;28;20056;-89
2023/01/21 15:27:13;;;;;;;7.00;4.88;;;4.50;99.90;;;;;;4994112;28;20091;-88
2023/01/21 15:29:42;;;;;;;6.63;4.72;;;4.30;99.90;;;;;;5041842;28;20067;-89